sensor_id;sensor_type;location;lat;lon;timestamp;P1;durP1;ratioP1;P2;durP2;ratioP2
9467;SDS011;4772;52.382;9.752;2023-03-23T00:02:22;3.40;;;1.70;;
9467;SDS011;4772;52.382;9.752;2023-03-23T00:04:48;5.43;;;1.87;;
9467;SDS011;4772;52.382;9.752;2023-03-23T00:07:15;2.67;;;1.67;;
9467;SDS011;4772;52.382;9.752;2023-03-23T00:09:46;2.43;;;2.03;;
9467;SDS011;4772;52.382;9.752;2023-03-23T00:12:12;3.50;;;2.20;;
9467;SDS011;4772;52.382;9.752;2023-03-23T00:14:40;7.23;;;2.23;;
9467;SDS011;4772;52.382;9.752;2023-03-23T00:17:08;6.03;;;2.40;;
9467;SDS011;4772;52.382;9.752;2023-03-23T00:19:39;4.57;;;2.40;;
9467;SDS011;4772;52.382;9.752;2023-03-23T00:22:10;4.73;;;2.50;;
9467;SDS011;4772;52.382;9.752;2023-03-23T00:24:36;4.33;;;2.40;;
9467;SDS011;4772;52.382;9.752;2023-03-23T00:27:02;4.77;;;2.70;;
9467;SDS011;4772;52.382;9.752;2023-03-23T00:29:28;3.00;;;2.43;;
9467;SDS011;4772;52.382;9.752;2023-03-23T00:31:54;4.53;;;2.30;;
9467;SDS011;4772;52.382;9.752;2023-03-23T00:34:24;5.30;;;2.90;;
9467;SDS011;4772;52.382;9.752;2023-03-23T00:36:51;4.33;;;2.47;;
9467;SDS011;4772;52.382;9.752;2023-03-23T00:39:18;4.83;;;2.43;;
9467;SDS011;4772;52.382;9.752;2023-03-23T00:41:45;5.63;;;2.67;;
9467;SDS011;4772;52.382;9.752;2023-03-23T00:44:12;4.20;;;2.77;;
9467;SDS011;4772;52.382;9.752;2023-03-23T00:46:45;4.80;;;2.60;;
9467;SDS011;4772;52.382;9.752;2023-03-23T00:49:14;3.83;;;2.60;;
9467;SDS011;4772;52.382;9.752;2023-03-23T00:51:41;4.83;;;2.70;;
9467;SDS011;4772;52.382;9.752;2023-03-23T00:54:07;5.37;;;2.50;;
9467;SDS011;4772;52.382;9.752;2023-03-23T00:56:34;4.67;;;2.87;;
9467;SDS011;4772;52.382;9.752;2023-03-23T00:59:00;5.13;;;2.90;;
9467;SDS011;4772;52.382;9.752;2023-03-23T01:01:26;4.20;;;2.70;;
9467;SDS011;4772;52.382;9.752;2023-03-23T01:03:52;7.77;;;3.07;;
9467;SDS011;4772;52.382;9.752;2023-03-23T01:06:25;5.77;;;2.97;;
9467;SDS011;4772;52.382;9.752;2023-03-23T01:08:51;4.23;;;2.70;;
9467;SDS011;4772;52.382;9.752;2023-03-23T01:11:18;3.43;;;2.67;;
9467;SDS011;4772;52.382;9.752;2023-03-23T01:13:44;3.63;;;2.73;;
9467;SDS011;4772;52.382;9.752;2023-03-23T01:16:11;3.40;;;2.60;;
9467;SDS011;4772;52.382;9.752;2023-03-23T01:18:37;3.90;;;2.57;;
9467;SDS011;4772;52.382;9.752;2023-03-23T01:21:07;3.80;;;2.77;;
9467;SDS011;4772;52.382;9.752;2023-03-23T01:23:35;4.00;;;2.60;;
9467;SDS011;4772;52.382;9.752;2023-03-23T01:26:07;8.63;;;2.80;;
9467;SDS011;4772;52.382;9.752;2023-03-23T01:28:34;3.40;;;2.73;;
9467;SDS011;4772;52.382;9.752;2023-03-23T01:31:01;5.83;;;2.70;;
9467;SDS011;4772;52.382;9.752;2023-03-23T01:33:28;3.93;;;2.80;;
9467;SDS011;4772;52.382;9.752;2023-03-23T01:35:54;4.70;;;2.97;;
9467;SDS011;4772;52.382;9.752;2023-03-23T01:38:20;5.13;;;2.83;;
9467;SDS011;4772;52.382;9.752;2023-03-23T01:40:46;6.40;;;2.97;;
9467;SDS011;4772;52.382;9.752;2023-03-23T01:43:13;3.60;;;2.60;;
9467;SDS011;4772;52.382;9.752;2023-03-23T01:45:40;4.27;;;2.80;;
9467;SDS011;4772;52.382;9.752;2023-03-23T01:50:55;3.00;;;2.70;;
9467;SDS011;4772;52.382;9.752;2023-03-23T01:53:24;5.90;;;2.77;;
9467;SDS011;4772;52.382;9.752;2023-03-23T01:55:52;5.53;;;2.70;;
9467;SDS011;4772;52.382;9.752;2023-03-23T01:58:19;4.07;;;2.70;;
9467;SDS011;4772;52.382;9.752;2023-03-23T02:00:47;4.30;;;3.10;;
9467;SDS011;4772;52.382;9.752;2023-03-23T02:03:13;3.70;;;2.50;;
9467;SDS011;4772;52.382;9.752;2023-03-23T02:05:42;6.47;;;2.90;;
9467;SDS011;4772;52.382;9.752;2023-03-23T02:08:08;4.93;;;2.60;;
9467;SDS011;4772;52.382;9.752;2023-03-23T02:10:35;4.43;;;2.43;;
9467;SDS011;4772;52.382;9.752;2023-03-23T02:13:03;5.30;;;2.77;;
9467;SDS011;4772;52.382;9.752;2023-03-23T02:15:41;3.07;;;2.40;;
9467;SDS011;4772;52.382;9.752;2023-03-23T02:18:17;4.60;;;2.60;;
9467;SDS011;4772;52.382;9.752;2023-03-23T02:20:52;5.77;;;2.30;;
9467;SDS011;4772;52.382;9.752;2023-03-23T02:23:40;3.50;;;2.60;;
9467;SDS011;4772;52.382;9.752;2023-03-23T02:26:25;4.30;;;2.57;;
9467;SDS011;4772;52.382;9.752;2023-03-23T02:31:46;3.63;;;2.40;;
9467;SDS011;4772;52.382;9.752;2023-03-23T02:34:18;6.10;;;2.60;;
9467;SDS011;4772;52.382;9.752;2023-03-23T02:36:47;2.70;;;2.37;;
9467;SDS011;4772;52.382;9.752;2023-03-23T02:41:43;5.63;;;2.37;;
9467;SDS011;4772;52.382;9.752;2023-03-23T02:44:11;4.87;;;2.57;;
9467;SDS011;4772;52.382;9.752;2023-03-23T02:46:38;2.80;;;2.50;;
9467;SDS011;4772;52.382;9.752;2023-03-23T02:49:05;4.73;;;2.33;;
9467;SDS011;4772;52.382;9.752;2023-03-23T02:51:33;4.43;;;2.47;;
9467;SDS011;4772;52.382;9.752;2023-03-23T02:54:00;3.20;;;2.50;;
9467;SDS011;4772;52.382;9.752;2023-03-23T02:56:26;3.87;;;2.27;;
9467;SDS011;4772;52.382;9.752;2023-03-23T02:58:54;3.97;;;2.70;;
9467;SDS011;4772;52.382;9.752;2023-03-23T03:03:57;6.03;;;2.70;;
9467;SDS011;4772;52.382;9.752;2023-03-23T03:09:02;2.90;;;2.27;;
9467;SDS011;4772;52.382;9.752;2023-03-23T03:11:31;4.10;;;2.60;;
9467;SDS011;4772;52.382;9.752;2023-03-23T03:13:59;5.20;;;2.63;;
9467;SDS011;4772;52.382;9.752;2023-03-23T03:19:05;4.00;;;2.63;;
9467;SDS011;4772;52.382;9.752;2023-03-23T03:21:35;4.07;;;3.07;;
9467;SDS011;4772;52.382;9.752;2023-03-23T03:24:03;4.77;;;2.80;;
9467;SDS011;4772;52.382;9.752;2023-03-23T03:26:30;3.30;;;2.97;;
9467;SDS011;4772;52.382;9.752;2023-03-23T03:28:57;5.33;;;3.10;;
9467;SDS011;4772;52.382;9.752;2023-03-23T03:31:24;3.40;;;3.07;;
9467;SDS011;4772;52.382;9.752;2023-03-23T03:33:51;4.80;;;2.90;;
9467;SDS011;4772;52.382;9.752;2023-03-23T03:36:18;4.00;;;3.17;;
9467;SDS011;4772;52.382;9.752;2023-03-23T03:38:46;3.63;;;2.97;;
9467;SDS011;4772;52.382;9.752;2023-03-23T03:41:13;5.33;;;3.17;;
9467;SDS011;4772;52.382;9.752;2023-03-23T03:43:39;4.87;;;3.30;;
9467;SDS011;4772;52.382;9.752;2023-03-23T03:46:05;4.63;;;3.13;;
9467;SDS011;4772;52.382;9.752;2023-03-23T03:48:32;3.80;;;2.93;;
9467;SDS011;4772;52.382;9.752;2023-03-23T03:50:58;3.43;;;2.80;;
9467;SDS011;4772;52.382;9.752;2023-03-23T03:53:25;3.57;;;3.00;;
9467;SDS011;4772;52.382;9.752;2023-03-23T03:55:51;4.20;;;2.90;;
9467;SDS011;4772;52.382;9.752;2023-03-23T03:58:24;4.50;;;3.23;;
9467;SDS011;4772;52.382;9.752;2023-03-23T04:00:56;5.80;;;2.93;;
9467;SDS011;4772;52.382;9.752;2023-03-23T04:03:23;3.97;;;2.57;;
9467;SDS011;4772;52.382;9.752;2023-03-23T04:05:50;4.87;;;3.07;;
9467;SDS011;4772;52.382;9.752;2023-03-23T04:08:16;5.20;;;2.60;;
9467;SDS011;4772;52.382;9.752;2023-03-23T04:10:42;2.93;;;2.60;;
9467;SDS011;4772;52.382;9.752;2023-03-23T04:13:09;4.13;;;2.23;;
9467;SDS011;4772;52.382;9.752;2023-03-23T04:15:35;5.60;;;2.70;;
9467;SDS011;4772;52.382;9.752;2023-03-23T04:18:01;2.87;;;2.33;;
9467;SDS011;4772;52.382;9.752;2023-03-23T04:20:27;3.00;;;2.40;;
9467;SDS011;4772;52.382;9.752;2023-03-23T04:22:52;4.03;;;2.80;;
9467;SDS011;4772;52.382;9.752;2023-03-23T04:25:20;4.57;;;2.70;;
9467;SDS011;4772;52.382;9.752;2023-03-23T04:27:47;3.13;;;2.80;;
9467;SDS011;4772;52.382;9.752;2023-03-23T04:30:17;2.83;;;2.47;;
9467;SDS011;4772;52.382;9.752;2023-03-23T04:32:44;3.27;;;2.50;;
9467;SDS011;4772;52.382;9.752;2023-03-23T04:35:11;2.90;;;2.20;;
9467;SDS011;4772;52.382;9.752;2023-03-23T04:37:37;3.53;;;2.53;;
9467;SDS011;4772;52.382;9.752;2023-03-23T04:40:04;3.60;;;2.00;;
9467;SDS011;4772;52.382;9.752;2023-03-23T04:42:34;5.13;;;2.10;;
9467;SDS011;4772;52.382;9.752;2023-03-23T04:45:00;3.50;;;1.90;;
9467;SDS011;4772;52.382;9.752;2023-03-23T04:47:27;3.30;;;2.33;;
9467;SDS011;4772;52.382;9.752;2023-03-23T04:49:54;2.20;;;2.00;;
9467;SDS011;4772;52.382;9.752;2023-03-23T04:52:20;2.63;;;2.40;;
9467;SDS011;4772;52.382;9.752;2023-03-23T04:54:46;3.33;;;1.97;;
9467;SDS011;4772;52.382;9.752;2023-03-23T04:57:12;2.20;;;2.00;;
9467;SDS011;4772;52.382;9.752;2023-03-23T04:59:40;5.10;;;2.07;;
9467;SDS011;4772;52.382;9.752;2023-03-23T05:02:06;2.60;;;2.07;;
9467;SDS011;4772;52.382;9.752;2023-03-23T05:04:32;3.03;;;1.97;;
9467;SDS011;4772;52.382;9.752;2023-03-23T05:06:58;3.47;;;2.00;;
9467;SDS011;4772;52.382;9.752;2023-03-23T05:09:24;3.23;;;2.07;;
9467;SDS011;4772;52.382;9.752;2023-03-23T05:11:50;2.90;;;2.40;;
9467;SDS011;4772;52.382;9.752;2023-03-23T05:14:16;4.17;;;2.13;;
9467;SDS011;4772;52.382;9.752;2023-03-23T05:16:42;3.27;;;2.17;;
9467;SDS011;4772;52.382;9.752;2023-03-23T05:19:13;7.67;;;2.37;;
9467;SDS011;4772;52.382;9.752;2023-03-23T05:21:39;4.23;;;2.30;;
9467;SDS011;4772;52.382;9.752;2023-03-23T05:24:06;3.00;;;1.93;;
9467;SDS011;4772;52.382;9.752;2023-03-23T05:26:32;5.03;;;2.17;;
9467;SDS011;4772;52.382;9.752;2023-03-23T05:28:58;3.20;;;2.20;;
9467;SDS011;4772;52.382;9.752;2023-03-23T05:31:24;3.20;;;2.27;;
9467;SDS011;4772;52.382;9.752;2023-03-23T05:33:51;2.70;;;2.23;;
9467;SDS011;4772;52.382;9.752;2023-03-23T05:36:17;3.47;;;2.03;;
9467;SDS011;4772;52.382;9.752;2023-03-23T05:38:43;3.73;;;2.10;;
9467;SDS011;4772;52.382;9.752;2023-03-23T05:41:12;3.93;;;2.20;;
9467;SDS011;4772;52.382;9.752;2023-03-23T05:43:38;2.73;;;1.90;;
9467;SDS011;4772;52.382;9.752;2023-03-23T05:46:04;6.17;;;2.20;;
9467;SDS011;4772;52.382;9.752;2023-03-23T05:48:30;1.90;;;1.60;;
9467;SDS011;4772;52.382;9.752;2023-03-23T05:50:56;4.13;;;2.00;;
9467;SDS011;4772;52.382;9.752;2023-03-23T05:53:22;3.93;;;2.47;;
9467;SDS011;4772;52.382;9.752;2023-03-23T05:55:49;4.10;;;1.97;;
9467;SDS011;4772;52.382;9.752;2023-03-23T05:58:15;2.57;;;1.90;;
9467;SDS011;4772;52.382;9.752;2023-03-23T06:00:41;3.77;;;2.03;;
9467;SDS011;4772;52.382;9.752;2023-03-23T06:03:07;1.93;;;1.83;;
9467;SDS011;4772;52.382;9.752;2023-03-23T06:05:33;2.10;;;1.77;;
9467;SDS011;4772;52.382;9.752;2023-03-23T06:07:59;3.30;;;2.10;;
9467;SDS011;4772;52.382;9.752;2023-03-23T06:10:26;3.20;;;1.77;;
9467;SDS011;4772;52.382;9.752;2023-03-23T06:12:52;1.93;;;1.50;;
9467;SDS011;4772;52.382;9.752;2023-03-23T06:15:18;1.80;;;1.70;;
9467;SDS011;4772;52.382;9.752;2023-03-23T06:17:44;2.43;;;1.80;;
9467;SDS011;4772;52.382;9.752;2023-03-23T06:20:11;1.60;;;1.50;;
9467;SDS011;4772;52.382;9.752;2023-03-23T06:22:37;1.70;;;1.60;;
9467;SDS011;4772;52.382;9.752;2023-03-23T06:25:05;3.43;;;1.80;;
9467;SDS011;4772;52.382;9.752;2023-03-23T06:27:31;2.73;;;1.70;;
9467;SDS011;4772;52.382;9.752;2023-03-23T06:29:57;2.07;;;1.60;;
9467;SDS011;4772;52.382;9.752;2023-03-23T06:32:26;1.53;;;1.43;;
9467;SDS011;4772;52.382;9.752;2023-03-23T06:34:54;3.60;;;1.50;;
9467;SDS011;4772;52.382;9.752;2023-03-23T06:37:21;1.97;;;1.50;;
9467;SDS011;4772;52.382;9.752;2023-03-23T06:39:48;1.60;;;1.30;;
9467;SDS011;4772;52.382;9.752;2023-03-23T06:42:14;1.77;;;1.40;;
9467;SDS011;4772;52.382;9.752;2023-03-23T06:44:40;2.93;;;1.60;;
9467;SDS011;4772;52.382;9.752;2023-03-23T06:47:06;1.57;;;1.47;;
9467;SDS011;4772;52.382;9.752;2023-03-23T06:49:32;3.03;;;1.30;;
9467;SDS011;4772;52.382;9.752;2023-03-23T06:51:58;3.87;;;1.77;;
9467;SDS011;4772;52.382;9.752;2023-03-23T06:54:26;1.93;;;1.70;;
9467;SDS011;4772;52.382;9.752;2023-03-23T06:56:52;3.13;;;1.37;;
9467;SDS011;4772;52.382;9.752;2023-03-23T06:59:18;1.60;;;1.50;;
9467;SDS011;4772;52.382;9.752;2023-03-23T07:01:44;1.97;;;1.50;;
9467;SDS011;4772;52.382;9.752;2023-03-23T07:04:11;1.80;;;1.50;;
9467;SDS011;4772;52.382;9.752;2023-03-23T07:06:38;1.50;;;1.40;;
9467;SDS011;4772;52.382;9.752;2023-03-23T07:09:04;1.70;;;1.50;;
9467;SDS011;4772;52.382;9.752;2023-03-23T07:11:30;1.63;;;1.33;;
9467;SDS011;4772;52.382;9.752;2023-03-23T07:13:56;2.73;;;1.50;;
9467;SDS011;4772;52.382;9.752;2023-03-23T07:16:22;1.83;;;1.60;;
9467;SDS011;4772;52.382;9.752;2023-03-23T07:18:47;3.50;;;1.80;;
9467;SDS011;4772;52.382;9.752;2023-03-23T07:21:13;2.00;;;1.63;;
9467;SDS011;4772;52.382;9.752;2023-03-23T07:23:40;1.50;;;1.40;;
9467;SDS011;4772;52.382;9.752;2023-03-23T07:26:06;1.80;;;1.60;;
9467;SDS011;4772;52.382;9.752;2023-03-23T07:28:32;1.60;;;1.50;;
9467;SDS011;4772;52.382;9.752;2023-03-23T07:30:58;2.27;;;1.57;;
9467;SDS011;4772;52.382;9.752;2023-03-23T07:33:25;2.03;;;1.43;;
9467;SDS011;4772;52.382;9.752;2023-03-23T07:35:51;1.97;;;1.63;;
9467;SDS011;4772;52.382;9.752;2023-03-23T07:38:17;3.07;;;1.73;;
9467;SDS011;4772;52.382;9.752;2023-03-23T07:40:45;2.33;;;1.77;;
9467;SDS011;4772;52.382;9.752;2023-03-23T07:43:11;3.40;;;1.67;;
9467;SDS011;4772;52.382;9.752;2023-03-23T07:45:37;3.90;;;2.03;;
9467;SDS011;4772;52.382;9.752;2023-03-23T07:48:03;2.53;;;1.80;;
9467;SDS011;4772;52.382;9.752;2023-03-23T07:50:30;2.00;;;1.80;;
9467;SDS011;4772;52.382;9.752;2023-03-23T07:52:57;3.43;;;2.37;;
9467;SDS011;4772;52.382;9.752;2023-03-23T07:55:24;3.20;;;1.60;;
9467;SDS011;4772;52.382;9.752;2023-03-23T07:57:50;3.33;;;1.70;;
9467;SDS011;4772;52.382;9.752;2023-03-23T08:00:17;3.23;;;1.90;;
9467;SDS011;4772;52.382;9.752;2023-03-23T08:02:48;4.30;;;1.70;;
9467;SDS011;4772;52.382;9.752;2023-03-23T08:05:15;2.93;;;1.80;;
9467;SDS011;4772;52.382;9.752;2023-03-23T08:07:41;3.43;;;1.83;;
9467;SDS011;4772;52.382;9.752;2023-03-23T08:10:08;3.33;;;1.83;;
9467;SDS011;4772;52.382;9.752;2023-03-23T08:12:38;4.13;;;1.80;;
9467;SDS011;4772;52.382;9.752;2023-03-23T08:15:06;2.40;;;1.60;;
9467;SDS011;4772;52.382;9.752;2023-03-23T08:17:32;2.53;;;1.70;;
9467;SDS011;4772;52.382;9.752;2023-03-23T08:19:59;2.93;;;1.90;;
9467;SDS011;4772;52.382;9.752;2023-03-23T08:22:25;3.90;;;2.00;;
9467;SDS011;4772;52.382;9.752;2023-03-23T08:24:51;5.53;;;2.00;;
9467;SDS011;4772;52.382;9.752;2023-03-23T08:27:17;3.97;;;2.03;;
9467;SDS011;4772;52.382;9.752;2023-03-23T08:29:44;3.57;;;2.10;;
9467;SDS011;4772;52.382;9.752;2023-03-23T08:32:10;3.57;;;1.87;;
9467;SDS011;4772;52.382;9.752;2023-03-23T08:34:36;4.37;;;2.10;;
9467;SDS011;4772;52.382;9.752;2023-03-23T08:37:02;4.73;;;2.00;;
9467;SDS011;4772;52.382;9.752;2023-03-23T08:39:29;2.27;;;1.70;;
9467;SDS011;4772;52.382;9.752;2023-03-23T08:41:55;6.30;;;2.37;;
9467;SDS011;4772;52.382;9.752;2023-03-23T08:44:21;3.40;;;2.10;;
9467;SDS011;4772;52.382;9.752;2023-03-23T08:46:48;4.03;;;2.03;;
9467;SDS011;4772;52.382;9.752;2023-03-23T08:49:14;3.87;;;2.23;;
9467;SDS011;4772;52.382;9.752;2023-03-23T08:51:40;4.13;;;2.20;;
9467;SDS011;4772;52.382;9.752;2023-03-23T08:54:06;4.53;;;2.20;;
9467;SDS011;4772;52.382;9.752;2023-03-23T08:56:32;5.73;;;2.30;;
9467;SDS011;4772;52.382;9.752;2023-03-23T08:58:58;2.93;;;2.03;;
9467;SDS011;4772;52.382;9.752;2023-03-23T09:01:24;5.20;;;2.33;;
9467;SDS011;4772;52.382;9.752;2023-03-23T09:03:51;5.10;;;2.30;;
9467;SDS011;4772;52.382;9.752;2023-03-23T09:06:17;5.37;;;2.23;;
9467;SDS011;4772;52.382;9.752;2023-03-23T09:08:43;3.73;;;2.10;;
9467;SDS011;4772;52.382;9.752;2023-03-23T09:11:10;4.43;;;2.00;;
9467;SDS011;4772;52.382;9.752;2023-03-23T09:13:36;4.67;;;2.87;;
9467;SDS011;4772;52.382;9.752;2023-03-23T09:16:03;4.40;;;2.23;;
9467;SDS011;4772;52.382;9.752;2023-03-23T09:18:29;4.50;;;2.13;;
9467;SDS011;4772;52.382;9.752;2023-03-23T09:20:57;5.77;;;1.97;;
9467;SDS011;4772;52.382;9.752;2023-03-23T09:23:23;4.87;;;2.23;;
9467;SDS011;4772;52.382;9.752;2023-03-23T09:25:49;3.73;;;2.00;;
9467;SDS011;4772;52.382;9.752;2023-03-23T09:28:16;4.70;;;2.33;;
9467;SDS011;4772;52.382;9.752;2023-03-23T09:30:43;4.63;;;2.20;;
9467;SDS011;4772;52.382;9.752;2023-03-23T09:33:10;4.93;;;2.20;;
9467;SDS011;4772;52.382;9.752;2023-03-23T09:35:36;7.17;;;2.13;;
9467;SDS011;4772;52.382;9.752;2023-03-23T09:38:03;3.73;;;2.10;;
9467;SDS011;4772;52.382;9.752;2023-03-23T09:40:36;5.50;;;2.30;;
9467;SDS011;4772;52.382;9.752;2023-03-23T09:43:16;3.80;;;2.27;;
9467;SDS011;4772;52.382;9.752;2023-03-23T09:48:35;5.83;;;2.57;;
9467;SDS011;4772;52.382;9.752;2023-03-23T09:51:07;6.17;;;2.17;;
9467;SDS011;4772;52.382;9.752;2023-03-23T09:53:39;5.17;;;2.13;;
9467;SDS011;4772;52.382;9.752;2023-03-23T09:56:13;5.87;;;2.10;;
9467;SDS011;4772;52.382;9.752;2023-03-23T09:58:45;6.17;;;2.40;;
9467;SDS011;4772;52.382;9.752;2023-03-23T10:01:16;9.00;;;2.90;;
9467;SDS011;4772;52.382;9.752;2023-03-23T10:03:44;6.27;;;2.40;;
9467;SDS011;4772;52.382;9.752;2023-03-23T10:06:13;5.10;;;2.43;;
9467;SDS011;4772;52.382;9.752;2023-03-23T10:09:01;7.40;;;2.53;;
9467;SDS011;4772;52.382;9.752;2023-03-23T10:16:31;6.17;;;2.17;;
9467;SDS011;4772;52.382;9.752;2023-03-23T10:19:01;7.40;;;2.40;;
9467;SDS011;4772;52.382;9.752;2023-03-23T10:21:29;7.43;;;2.50;;
9467;SDS011;4772;52.382;9.752;2023-03-23T10:28:59;4.33;;;2.07;;
9467;SDS011;4772;52.382;9.752;2023-03-23T10:31:34;6.07;;;2.40;;
9467;SDS011;4772;52.382;9.752;2023-03-23T10:34:03;4.37;;;2.40;;
9467;SDS011;4772;52.382;9.752;2023-03-23T10:36:37;5.97;;;2.60;;
9467;SDS011;4772;52.382;9.752;2023-03-23T10:39:14;5.20;;;2.20;;
9467;SDS011;4772;52.382;9.752;2023-03-23T10:41:42;5.47;;;2.20;;
9467;SDS011;4772;52.382;9.752;2023-03-23T10:44:15;11.03;;;2.80;;
9467;SDS011;4772;52.382;9.752;2023-03-23T10:46:45;4.60;;;2.03;;
9467;SDS011;4772;52.382;9.752;2023-03-23T10:49:17;6.43;;;2.57;;
9467;SDS011;4772;52.382;9.752;2023-03-23T10:51:44;7.17;;;2.20;;
9467;SDS011;4772;52.382;9.752;2023-03-23T10:54:24;4.40;;;2.07;;
9467;SDS011;4772;52.382;9.752;2023-03-23T10:56:50;4.87;;;1.97;;
9467;SDS011;4772;52.382;9.752;2023-03-23T10:59:21;3.87;;;2.00;;
9467;SDS011;4772;52.382;9.752;2023-03-23T11:01:48;5.13;;;2.13;;
9467;SDS011;4772;52.382;9.752;2023-03-23T11:04:16;5.63;;;2.20;;
9467;SDS011;4772;52.382;9.752;2023-03-23T11:06:46;3.73;;;2.10;;
9467;SDS011;4772;52.382;9.752;2023-03-23T11:09:13;6.17;;;2.27;;
9467;SDS011;4772;52.382;9.752;2023-03-23T11:11:41;4.60;;;2.33;;
9467;SDS011;4772;52.382;9.752;2023-03-23T11:16:53;4.90;;;2.30;;
9467;SDS011;4772;52.382;9.752;2023-03-23T11:19:24;6.33;;;2.30;;
9467;SDS011;4772;52.382;9.752;2023-03-23T11:21:51;6.33;;;2.47;;
9467;SDS011;4772;52.382;9.752;2023-03-23T11:24:20;4.30;;;2.53;;
9467;SDS011;4772;52.382;9.752;2023-03-23T11:26:46;5.57;;;2.40;;
9467;SDS011;4772;52.382;9.752;2023-03-23T11:31:40;6.73;;;2.43;;
9467;SDS011;4772;52.382;9.752;2023-03-23T11:34:13;4.10;;;2.20;;
9467;SDS011;4772;52.382;9.752;2023-03-23T11:36:42;4.17;;;2.20;;
9467;SDS011;4772;52.382;9.752;2023-03-23T11:41:47;6.23;;;2.27;;
9467;SDS011;4772;52.382;9.752;2023-03-23T11:44:14;4.50;;;2.40;;
9467;SDS011;4772;52.382;9.752;2023-03-23T11:49:15;7.20;;;2.67;;
9467;SDS011;4772;52.382;9.752;2023-03-23T11:51:49;6.27;;;2.10;;
9467;SDS011;4772;52.382;9.752;2023-03-23T11:54:24;6.40;;;2.70;;
9467;SDS011;4772;52.382;9.752;2023-03-23T11:56:52;7.77;;;2.80;;
9467;SDS011;4772;52.382;9.752;2023-03-23T11:59:28;9.10;;;2.57;;
9467;SDS011;4772;52.382;9.752;2023-03-23T12:01:57;9.90;;;2.60;;
9467;SDS011;4772;52.382;9.752;2023-03-23T12:04:33;6.87;;;2.90;;
9467;SDS011;4772;52.382;9.752;2023-03-23T12:14:50;3.93;;;1.93;;
9467;SDS011;4772;52.382;9.752;2023-03-23T12:22:11;6.50;;;2.23;;
9467;SDS011;4772;52.382;9.752;2023-03-23T12:25:04;3.77;;;1.63;;
9467;SDS011;4772;52.382;9.752;2023-03-23T12:27:40;4.20;;;1.90;;
9467;SDS011;4772;52.382;9.752;2023-03-23T12:35:31;4.20;;;1.80;;
9467;SDS011;4772;52.382;9.752;2023-03-23T12:43:15;2.47;;;1.60;;
9467;SDS011;4772;52.382;9.752;2023-03-23T12:45:52;4.33;;;1.70;;
9467;SDS011;4772;52.382;9.752;2023-03-23T12:48:23;4.43;;;1.70;;
9467;SDS011;4772;52.382;9.752;2023-03-23T12:56:26;3.80;;;1.40;;
9467;SDS011;4772;52.382;9.752;2023-03-23T12:58:59;2.97;;;1.97;;
9467;SDS011;4772;52.382;9.752;2023-03-23T13:01:32;4.70;;;1.50;;
9467;SDS011;4772;52.382;9.752;2023-03-23T13:04:09;1.27;;;1.17;;
9467;SDS011;4772;52.382;9.752;2023-03-23T13:06:37;4.33;;;1.50;;
9467;SDS011;4772;52.382;9.752;2023-03-23T13:11:42;1.33;;;0.90;;
9467;SDS011;4772;52.382;9.752;2023-03-23T13:22:04;4.00;;;1.70;;
9467;SDS011;4772;52.382;9.752;2023-03-23T13:24:33;1.83;;;1.20;;
9467;SDS011;4772;52.382;9.752;2023-03-23T13:27:00;4.80;;;1.40;;
9467;SDS011;4772;52.382;9.752;2023-03-23T13:29:26;2.43;;;1.50;;
9467;SDS011;4772;52.382;9.752;2023-03-23T13:32:04;2.03;;;1.63;;
9467;SDS011;4772;52.382;9.752;2023-03-23T13:34:30;1.87;;;1.33;;
9467;SDS011;4772;52.382;9.752;2023-03-23T13:36:57;3.03;;;1.40;;
9467;SDS011;4772;52.382;9.752;2023-03-23T13:39:25;3.27;;;1.50;;
9467;SDS011;4772;52.382;9.752;2023-03-23T13:41:59;2.67;;;1.20;;
9467;SDS011;4772;52.382;9.752;2023-03-23T13:44:26;3.90;;;1.43;;
9467;SDS011;4772;52.382;9.752;2023-03-23T13:46:56;2.53;;;1.20;;
9467;SDS011;4772;52.382;9.752;2023-03-23T13:49:23;1.00;;;0.90;;
9467;SDS011;4772;52.382;9.752;2023-03-23T13:56:54;2.90;;;1.57;;
9467;SDS011;4772;52.382;9.752;2023-03-23T14:01:52;2.23;;;1.10;;
9467;SDS011;4772;52.382;9.752;2023-03-23T14:04:19;2.23;;;1.40;;
9467;SDS011;4772;52.382;9.752;2023-03-23T14:06:47;2.63;;;1.27;;
9467;SDS011;4772;52.382;9.752;2023-03-23T14:09:18;3.07;;;1.50;;
9467;SDS011;4772;52.382;9.752;2023-03-23T14:12:20;2.97;;;1.10;;
9467;SDS011;4772;52.382;9.752;2023-03-23T14:14:40;3.97;;;1.10;;
9467;SDS011;4772;52.382;9.752;2023-03-23T14:19:32;1.33;;;1.00;;
9467;SDS011;4772;52.382;9.752;2023-03-23T14:22:01;1.47;;;0.90;;
9467;SDS011;4772;52.382;9.752;2023-03-23T14:24:29;2.63;;;1.30;;
9467;SDS011;4772;52.382;9.752;2023-03-23T14:27:08;3.03;;;1.43;;
9467;SDS011;4772;52.382;9.752;2023-03-23T14:29:35;1.37;;;1.13;;
9467;SDS011;4772;52.382;9.752;2023-03-23T14:32:01;1.83;;;1.53;;
9467;SDS011;4772;52.382;9.752;2023-03-23T14:34:29;2.30;;;1.40;;
9467;SDS011;4772;52.382;9.752;2023-03-23T14:36:55;3.63;;;1.50;;
9467;SDS011;4772;52.382;9.752;2023-03-23T14:39:29;2.60;;;1.30;;
9467;SDS011;4772;52.382;9.752;2023-03-23T14:41:57;1.60;;;0.93;;
9467;SDS011;4772;52.382;9.752;2023-03-23T14:44:29;2.63;;;1.50;;
9467;SDS011;4772;52.382;9.752;2023-03-23T14:46:56;1.60;;;1.23;;
9467;SDS011;4772;52.382;9.752;2023-03-23T14:49:41;2.40;;;1.50;;
9467;SDS011;4772;52.382;9.752;2023-03-23T14:52:13;1.37;;;1.27;;
9467;SDS011;4772;52.382;9.752;2023-03-23T14:54:40;4.57;;;1.80;;
9467;SDS011;4772;52.382;9.752;2023-03-23T14:57:11;3.20;;;1.30;;
9467;SDS011;4772;52.382;9.752;2023-03-23T14:59:39;3.90;;;1.63;;
9467;SDS011;4772;52.382;9.752;2023-03-23T15:02:05;2.47;;;1.67;;
9467;SDS011;4772;52.382;9.752;2023-03-23T15:04:31;4.50;;;1.70;;
9467;SDS011;4772;52.382;9.752;2023-03-23T15:07:02;3.07;;;1.80;;
9467;SDS011;4772;52.382;9.752;2023-03-23T15:09:28;1.93;;;1.30;;
9467;SDS011;4772;52.382;9.752;2023-03-23T15:12:02;1.30;;;1.20;;
9467;SDS011;4772;52.382;9.752;2023-03-23T15:14:29;3.63;;;1.70;;
9467;SDS011;4772;52.382;9.752;2023-03-23T15:16:56;1.90;;;1.50;;
9467;SDS011;4772;52.382;9.752;2023-03-23T15:19:24;2.87;;;1.60;;
9467;SDS011;4772;52.382;9.752;2023-03-23T15:21:52;1.80;;;1.43;;
9467;SDS011;4772;52.382;9.752;2023-03-23T15:26:45;1.27;;;1.17;;
9467;SDS011;4772;52.382;9.752;2023-03-23T15:29:13;1.90;;;1.20;;
9467;SDS011;4772;52.382;9.752;2023-03-23T15:31:44;1.97;;;1.40;;
9467;SDS011;4772;52.382;9.752;2023-03-23T15:34:12;2.10;;;1.57;;
9467;SDS011;4772;52.382;9.752;2023-03-23T15:36:40;2.53;;;1.20;;
9467;SDS011;4772;52.382;9.752;2023-03-23T15:39:09;1.87;;;1.30;;
9467;SDS011;4772;52.382;9.752;2023-03-23T15:41:44;2.03;;;1.40;;
9467;SDS011;4772;52.382;9.752;2023-03-23T15:44:11;2.00;;;1.47;;
9467;SDS011;4772;52.382;9.752;2023-03-23T15:46:48;2.43;;;1.50;;
9467;SDS011;4772;52.382;9.752;2023-03-23T15:49:15;1.63;;;1.40;;
9467;SDS011;4772;52.382;9.752;2023-03-23T15:51:41;3.43;;;1.50;;
9467;SDS011;4772;52.382;9.752;2023-03-23T15:54:13;2.97;;;1.40;;
9467;SDS011;4772;52.382;9.752;2023-03-23T15:56:39;2.50;;;1.50;;
9467;SDS011;4772;52.382;9.752;2023-03-23T15:59:06;4.00;;;1.30;;
9467;SDS011;4772;52.382;9.752;2023-03-23T16:01:32;2.43;;;1.80;;
9467;SDS011;4772;52.382;9.752;2023-03-23T16:04:09;2.20;;;1.80;;
9467;SDS011;4772;52.382;9.752;2023-03-23T16:06:36;2.00;;;1.70;;
9467;SDS011;4772;52.382;9.752;2023-03-23T16:09:02;3.40;;;1.63;;
9467;SDS011;4772;52.382;9.752;2023-03-23T16:11:29;1.87;;;1.60;;
9467;SDS011;4772;52.382;9.752;2023-03-23T16:13:56;4.60;;;1.90;;
9467;SDS011;4772;52.382;9.752;2023-03-23T16:16:24;2.13;;;1.50;;
9467;SDS011;4772;52.382;9.752;2023-03-23T16:18:51;3.40;;;1.67;;
9467;SDS011;4772;52.382;9.752;2023-03-23T16:21:17;3.60;;;1.80;;
9467;SDS011;4772;52.382;9.752;2023-03-23T16:23:43;4.33;;;1.87;;
9467;SDS011;4772;52.382;9.752;2023-03-23T16:26:10;2.33;;;1.90;;
9467;SDS011;4772;52.382;9.752;2023-03-23T16:28:36;2.47;;;1.50;;
9467;SDS011;4772;52.382;9.752;2023-03-23T16:31:02;3.70;;;1.90;;
9467;SDS011;4772;52.382;9.752;2023-03-23T16:33:28;2.97;;;1.70;;
9467;SDS011;4772;52.382;9.752;2023-03-23T16:35:54;1.60;;;1.50;;
9467;SDS011;4772;52.382;9.752;2023-03-23T16:38:22;3.53;;;1.80;;
9467;SDS011;4772;52.382;9.752;2023-03-23T16:40:48;3.23;;;1.87;;
9467;SDS011;4772;52.382;9.752;2023-03-23T16:43:15;2.63;;;1.67;;
9467;SDS011;4772;52.382;9.752;2023-03-23T16:45:41;1.73;;;1.47;;
9467;SDS011;4772;52.382;9.752;2023-03-23T16:48:08;4.00;;;1.87;;
9467;SDS011;4772;52.382;9.752;2023-03-23T16:50:36;2.47;;;1.63;;
9467;SDS011;4772;52.382;9.752;2023-03-23T16:53:03;2.50;;;1.87;;